Virgil, KS (66870)

6:05 AM CST on March 04, 2015 (GMT -0600)
Buffalo | Change Station
CLOSE
Current Station
Personal Weather Station
Location: Yates Center, KS
Elevation: 935 ft
Nearby Weather Stations

Elev 935 ft 37.76 °N, 95.74 °W | Updated 9 minutes ago

Snow
Snow
19.9 °F
Feels Like 4 °F
N
20.7
Wind Variable Wind from North

Today
High -- | Low -- °F
--% Chance of Precip.
Yesterday
High -- | Low -- °F
Precip. -- in
6:51 AM 6:20 PM
Waxing Gibbous, 99% visible
Pressure 30.23 in
Visibility 6.0 miles
Clouds Overcast 3700 ft
Windchill 4 °F
Dew Point 16 °F
Humidity 86%
Rainfall 0.00 in
Snow Depth Not available.
UV 0 out of 12
Pollen 3.40 out of 12
Air Quality Not available.
Flu Activity Not available.
METAR KEMP 041153Z AUTO 02013G22KT 6SM -SN OVC037 M07/M13 A3019 RMK AO2 SNE26B51 SLP235 P0000 60000 T10671133 11011 21072 51028

More Conditions Fewer Conditions

Pressure 30.23 in
Visibility 6.0 miles
Clouds Overcast 3700 ft
Windchill 4 °F
Dew Point 16 °F
Humidity 86%
Rainfall 0.00 in
Snow Depth Not available.
UV 0 out of 12
Pollen 3.40 out of 12
Air Quality Not available.
Flu Activity Not available.
METAR KEMP 041153Z AUTO 02013G22KT 6SM -SN OVC037 M07/M13 A3019 RMK AO2 SNE26B51 SLP235 P0000 60000 T10671133 11011 21072 51028

More Conditions Fewer Conditions

10-Day Weather Forecast

Almanac

Astronomy

Mar. 04, 2015 Rise Set
Actual Time
Civil Twilight
Nautical Twilight
Astronomical Twilight
Moon
Length of Visible Light
Length of Day
Tomorrow will be .
, % of the Moon is Illuminated

Today's Extremes

State Highs State Lows

Community

WunderPhotos

Upload Photos

1,802,436 photos uploaded!

WunderBlogs® & News

Nearby

Air Quality

  Air Quality AQ Index Pollutant
Not available.

Snow Depth

Station Depth Elevation

Earthquake Activity

City Distance Mag. Time & Date
Minimum magnitude displayed is 2.5.

Coastal Water Temperatures

Place Temperature

Nearby Weather Stations